createdAt,value
2022-08-29T00:02:49.981Z,98201.12
2022-08-29T00:05:53.258Z,98198.61
2022-08-29T00:08:57.361Z,98198.02
2022-08-29T00:12:00.594Z,98198.90
2022-08-29T00:15:06.682Z,98197.16
2022-08-29T00:18:09.756Z,98193.11
2022-08-29T00:21:13.162Z,98199.65
2022-08-29T00:24:17.110Z,98197.54
2022-08-29T00:27:20.062Z,98198.52
2022-08-29T00:30:24.021Z,98200.48
2022-08-29T00:33:27.033Z,98201.84
2022-08-29T00:36:30.470Z,98205.28
2022-08-29T00:39:33.563Z,98200.80
2022-08-29T00:42:37.997Z,98199.50
2022-08-29T00:45:53.284Z,98203.75
2022-08-29T00:49:01.950Z,98196.13
2022-08-29T00:52:11.384Z,98198.37
2022-08-29T00:55:22.580Z,98198.84
2022-08-29T00:58:31.032Z,98201.33
2022-08-29T01:01:34.046Z,98200.55
2022-08-29T01:04:37.884Z,98205.17
2022-08-29T01:07:41.455Z,98200.55
2022-08-29T01:11:03.055Z,98201.81
2022-08-29T01:14:06.121Z,98199.23
2022-08-29T01:17:10.535Z,98203.30
2022-08-29T01:20:55.326Z,98204.21
2022-08-29T01:24:27.016Z,98208.30
2022-08-29T01:27:34.464Z,98205.10
2022-08-29T01:30:56.028Z,98207.58
2022-08-29T01:33:59.709Z,98209.35
2022-08-29T01:37:05.916Z,98210.16
2022-08-29T01:40:10.089Z,98212.14
2022-08-29T01:43:13.085Z,98218.77
2022-08-29T01:46:20.758Z,98222.02
2022-08-29T01:49:24.886Z,98227.77
2022-08-29T01:52:28.211Z,98229.52
2022-08-29T01:55:31.131Z,98231.88
2022-08-29T01:58:33.993Z,98233.55
2022-08-29T02:01:40.010Z,98241.75
2022-08-29T02:04:46.126Z,98240.88
2022-08-29T02:07:49.691Z,98237.83
2022-08-29T02:10:52.957Z,98239.03
2022-08-29T02:13:58.525Z,98236.98
2022-08-29T02:17:02.857Z,98240.55
2022-08-29T02:20:08.470Z,98242.44
2022-08-29T02:23:29.948Z,98245.44
2022-08-29T02:26:34.412Z,98242.45
2022-08-29T02:29:38.421Z,98244.95
2022-08-29T02:32:41.490Z,98245.04
2022-08-29T02:35:46.138Z,98247.80
2022-08-29T02:38:49.882Z,98253.04
2022-08-29T02:41:53.031Z,98249.25
2022-08-29T02:44:56.972Z,98252.72
2022-08-29T02:47:59.958Z,98249.24
2022-08-29T02:51:02.872Z,98252.54
2022-08-29T02:54:05.907Z,98250.86
2022-08-29T02:57:08.814Z,98256.81
2022-08-29T03:00:18.318Z,98251.92
2022-08-29T03:03:21.274Z,98252.50
2022-08-29T03:06:24.278Z,98257.30
2022-08-29T03:09:27.153Z,98258.64
2022-08-29T03:12:30.193Z,98261.42
2022-08-29T03:15:35.442Z,98261.42
2022-08-29T03:18:38.732Z,98264.31
2022-08-29T03:21:43.569Z,98263.05
2022-08-29T03:24:46.455Z,98263.69
2022-08-29T03:27:49.536Z,98263.02
2022-08-29T03:30:52.446Z,98262.13
2022-08-29T03:33:56.698Z,98264.88
2022-08-29T03:36:59.943Z,98267.42
2022-08-29T03:40:05.975Z,98275.45
2022-08-29T03:43:10.464Z,98281.90
2022-08-29T03:46:13.382Z,98288.35
2022-08-29T03:49:16.323Z,98295.82
2022-08-29T03:52:19.236Z,98302.69
2022-08-29T03:55:22.231Z,98305.91
2022-08-29T03:58:25.341Z,98302.73
2022-08-29T04:01:29.697Z,98308.83
2022-08-29T04:04:50.852Z,98307.83
2022-08-29T04:07:58.907Z,98310.65
2022-08-29T04:11:01.846Z,98313.87
2022-08-29T04:14:04.849Z,98313.80
2022-08-29T04:17:10.306Z,98314.02
2022-08-29T04:20:14.272Z,98315.94
2022-08-29T04:23:17.170Z,98322.39
2022-08-29T04:26:36.455Z,98328.54
2022-08-29T04:29:39.990Z,98333.06
2022-08-29T04:32:44.548Z,98332.48
2022-08-29T04:35:47.504Z,98335.52
2022-08-29T04:38:50.650Z,98338.14
2022-08-29T04:41:53.592Z,98342.10
2022-08-29T04:44:57.469Z,98346.07
2022-08-29T04:48:03.529Z,98349.38
2022-08-29T04:51:06.816Z,98352.02
2022-08-29T04:54:10.002Z,98362.51
2022-08-29T04:57:12.903Z,98358.65
2022-08-29T05:00:19.890Z,98361.44
2022-08-29T05:03:23.735Z,98362.24
2022-08-29T05:06:26.755Z,98368.23
2022-08-29T05:09:29.768Z,98374.64
2022-08-29T05:12:33.858Z,98377.96
2022-08-29T05:15:38.782Z,98382.04
2022-08-29T05:18:44.293Z,98382.27
2022-08-29T05:21:47.309Z,98385.79
2022-08-29T05:24:53.539Z,98388.40
2022-08-29T05:27:56.489Z,98391.30
2022-08-29T05:31:00.387Z,98393.77
2022-08-29T05:34:32.024Z,98395.23
2022-08-29T05:37:28.119Z,98401.02
2022-08-29T05:40:31.485Z,98403.97
2022-08-29T05:43:35.018Z,98408.79
2022-08-29T05:46:37.950Z,98412.33
2022-08-29T05:49:43.048Z,98413.95
2022-08-29T05:52:45.964Z,98412.26
2022-08-29T05:55:49.026Z,98408.23
2022-08-29T05:58:52.030Z,98405.11
2022-08-29T06:01:54.967Z,98407.59
2022-08-29T06:04:59.408Z,98409.27
2022-08-29T06:08:02.795Z,98408.80
2022-08-29T06:11:05.936Z,98412.80
2022-08-29T06:14:08.915Z,98420.23
2022-08-29T06:25:39.807Z,98434.98
2022-08-29T06:28:45.953Z,98437.90
2022-08-29T06:31:47.559Z,98445.79
2022-08-29T06:34:49.488Z,98448.09
2022-08-29T06:37:51.019Z,98449.08
2022-08-29T06:40:52.634Z,98447.54
2022-08-29T06:43:56.199Z,98452.48
2022-08-29T06:46:58.528Z,98453.59
2022-08-29T06:50:00.232Z,98449.73
2022-08-29T06:53:26.090Z,98456.16
2022-08-29T06:56:23.863Z,98456.67
2022-08-29T06:59:28.283Z,98460.80
2022-08-29T07:02:30.001Z,98458.17
2022-08-29T07:05:32.640Z,98457.70
2022-08-29T07:08:35.331Z,98465.89
2022-08-29T07:11:41.256Z,98469.02
2022-08-29T07:14:43.245Z,98477.48
2022-08-29T07:17:45.303Z,98477.11
2022-08-29T07:20:46.872Z,98480.21
2022-08-29T07:23:49.836Z,98478.81
2022-08-29T07:26:51.924Z,98481.60
2022-08-29T07:29:53.464Z,98481.34
2022-08-29T07:32:55.199Z,98485.59
2022-08-29T07:36:01.027Z,98485.15
2022-08-29T07:39:09.988Z,98487.77
2022-08-29T07:42:11.628Z,98493.88
2022-08-29T07:45:17.496Z,98489.75
2022-08-29T07:48:22.938Z,98496.66
2022-08-29T07:51:26.158Z,98494.85
2022-08-29T07:54:27.803Z,98492.23
2022-08-29T07:57:29.446Z,98494.23
2022-08-29T08:00:31.384Z,98501.34
2022-08-29T08:03:33.493Z,98501.05
2022-08-29T08:06:36.140Z,98500.81
2022-08-29T08:09:37.873Z,98503.16
2022-08-29T08:12:39.516Z,98503.58
2022-08-29T08:15:41.138Z,98507.23
2022-08-29T08:18:44.031Z,98513.80
2022-08-29T08:21:49.848Z,98516.97
2022-08-29T08:24:52.668Z,98523.17
2022-08-29T08:27:55.346Z,98527.42
2022-08-29T08:31:03.600Z,98524.19
2022-08-29T08:34:07.407Z,98521.90
2022-08-29T08:37:10.091Z,98517.92
2022-08-29T08:40:53.811Z,98517.84
2022-08-29T08:43:59.998Z,98527.83
2022-08-29T08:47:07.128Z,98526.34
2022-08-29T08:50:16.512Z,98524.36
2022-08-29T08:53:36.707Z,98529.39
2022-08-29T08:56:43.692Z,98523.89
2022-08-29T08:59:58.469Z,98518.89
2022-08-29T09:03:25.682Z,98520.40
2022-08-29T09:06:48.276Z,98524.98
2022-08-29T09:10:08.543Z,98528.06
2022-08-29T09:13:32.767Z,98530.18
2022-08-29T09:16:40.622Z,98524.46
2022-08-29T09:19:43.783Z,98523.40
2022-08-29T09:22:58.313Z,98524.20
2022-08-29T09:25:59.956Z,98522.59
2022-08-29T09:29:01.751Z,98519.45
2022-08-29T09:32:17.759Z,98516.27
2022-08-29T09:35:30.370Z,98522.97
2022-08-29T09:38:35.206Z,98522.40
2022-08-29T09:41:37.123Z,98521.54
2022-08-29T09:44:39.785Z,98518.89
2022-08-29T09:47:41.693Z,98518.64
2022-08-29T09:50:43.375Z,98519.29
2022-08-29T09:53:45.013Z,98522.13
2022-08-29T09:56:51.993Z,98517.68
2022-08-29T10:00:13.824Z,98515.94
2022-08-29T10:03:22.129Z,98510.41
2022-08-29T10:06:30.683Z,98512.15
2022-08-29T10:09:32.299Z,98513.89
2022-08-29T10:12:42.665Z,98510.46
2022-08-29T10:16:02.750Z,98511.94
2022-08-29T10:19:12.821Z,98510.64
2022-08-29T10:22:38.140Z,98503.73
2022-08-29T10:25:40.818Z,98507.26
2022-08-29T10:29:11.131Z,98505.44
2022-08-29T10:32:42.630Z,98503.66
2022-08-29T10:36:00.616Z,98505.30
2022-08-29T10:39:15.378Z,98506.81
2022-08-29T10:42:21.252Z,98502.59
2022-08-29T10:45:39.438Z,98501.58
2022-08-29T10:48:48.445Z,98504.79
2022-08-29T10:52:16.427Z,98500.07
2022-08-29T10:55:51.960Z,98503.67
2022-08-29T10:58:56.742Z,98501.92
2022-08-29T11:02:09.853Z,98505.82
2022-08-29T11:05:21.559Z,98504.63
2022-08-29T11:08:30.245Z,98495.46
2022-08-29T11:11:33.493Z,98496.91
2022-08-29T11:15:01.670Z,98492.11
2022-08-29T11:18:36.211Z,98494.95
2022-08-29T11:21:51.097Z,98495.75
2022-08-29T11:25:04.931Z,98494.45
2022-08-29T11:28:34.179Z,98494.68
2022-08-29T11:32:11.661Z,98494.42
2022-08-29T11:35:20.038Z,98496.83
2022-08-29T11:38:33.595Z,98494.33
2022-08-29T11:41:41.337Z,98494.78
2022-08-29T11:44:53.569Z,98489.85
2022-08-29T11:48:01.163Z,98487.98
2022-08-29T11:51:40.889Z,98486.16
2022-08-29T11:54:42.449Z,98485.27
2022-08-29T11:57:45.616Z,98482.61
2022-08-29T12:00:50.794Z,98485.65
2022-08-29T12:03:55.344Z,98483.21
2022-08-29T12:07:01.193Z,98477.32
2022-08-29T12:10:10.688Z,98480.33
2022-08-29T12:13:47.582Z,98477.46
2022-08-29T12:16:52.932Z,98477.11
2022-08-29T12:20:07.074Z,98472.61
2022-08-29T12:23:17.882Z,98472.60
2022-08-29T12:26:37.983Z,98475.20
2022-08-29T12:29:44.562Z,98467.17
2022-08-29T12:32:57.546Z,98464.40
2022-08-29T12:36:06.798Z,98465.27
2022-08-29T12:39:20.809Z,98472.31
2022-08-29T12:42:44.696Z,98468.91
2022-08-29T12:45:48.457Z,98462.99
2022-08-29T12:48:57.500Z,98460.14
2022-08-29T12:52:04.871Z,98469.74
2022-08-29T12:55:28.912Z,98469.58
2022-08-29T12:58:38.367Z,98471.76
2022-08-29T13:01:40.153Z,98472.94
2022-08-29T13:04:43.183Z,98471.29
2022-08-29T13:07:57.824Z,98465.33
2022-08-29T13:11:02.798Z,98462.37
2022-08-29T13:14:10.485Z,98464.56
2022-08-29T13:17:14.698Z,98467.89
2022-08-29T13:20:47.760Z,98466.29
2022-08-29T13:24:02.552Z,98460.30
2022-08-29T13:27:06.471Z,98462.23
2022-08-29T13:30:08.848Z,98457.74
2022-08-29T13:33:34.579Z,98460.69
2022-08-29T13:36:59.122Z,98461.41
2022-08-29T13:40:32.919Z,98459.39
2022-08-29T13:43:42.618Z,98456.56
2022-08-29T13:46:46.713Z,98458.14
2022-08-29T13:49:49.264Z,98452.96
2022-08-29T13:52:52.800Z,98452.65
2022-08-29T13:55:54.496Z,98450.19
2022-08-29T13:58:57.178Z,98444.27
2022-08-29T14:02:15.281Z,98448.14
2022-08-29T14:05:17.554Z,98449.80
2022-08-29T14:08:19.399Z,98447.88
2022-08-29T14:11:20.926Z,98451.89
2022-08-29T14:14:22.594Z,98453.75
2022-08-29T14:17:24.394Z,98448.20
2022-08-29T14:20:26.036Z,98450.73
2022-08-29T14:23:27.851Z,98451.14
2022-08-29T14:26:29.363Z,98455.15
2022-08-29T14:29:33.700Z,98455.30
2022-08-29T14:32:35.930Z,98454.34
2022-08-29T14:35:37.538Z,98452.74
2022-08-29T14:38:44.146Z,98454.18
2022-08-29T14:41:46.003Z,98449.00
2022-08-29T14:44:47.814Z,98455.08
2022-08-29T14:47:49.451Z,98451.23
2022-08-29T14:50:51.116Z,98449.23
2022-08-29T14:53:54.483Z,98444.60
2022-08-29T14:56:56.510Z,98446.42
2022-08-29T14:59:58.213Z,98454.21
2022-08-29T15:03:00.753Z,98456.23
2022-08-29T15:06:05.172Z,98454.16
2022-08-29T15:09:06.735Z,98448.72
2022-08-29T15:12:10.232Z,98452.64
2022-08-29T15:15:21.326Z,98453.26
2022-08-29T15:19:31.619Z,98451.59
2022-08-29T15:21:59.354Z,98448.64
2022-08-29T15:25:02.986Z,98442.84
2022-08-29T15:28:05.208Z,98447.44
2022-08-29T15:31:07.181Z,98446.71
2022-08-29T15:34:09.464Z,98448.50
2022-08-29T15:37:11.634Z,98450.12
2022-08-29T15:40:13.986Z,98443.51
2022-08-29T15:43:15.731Z,98443.79
2022-08-29T15:46:18.496Z,98440.12
2022-08-29T15:49:22.573Z,98437.36
2022-08-29T15:52:26.422Z,98435.02
2022-08-29T15:55:28.172Z,98436.65
2022-08-29T15:58:29.804Z,98441.89
2022-08-29T16:01:41.328Z,98440.17
2022-08-29T16:04:46.835Z,98441.36
2022-08-29T16:07:48.386Z,98443.02
2022-08-29T16:10:50.011Z,98439.64
2022-08-29T16:14:08.401Z,98440.07
2022-08-29T16:17:15.431Z,98441.33
2022-08-29T16:20:16.995Z,98438.27
2022-08-29T16:23:18.802Z,98435.52
2022-08-29T16:26:22.263Z,98436.16
2022-08-29T16:29:26.846Z,98431.93
2022-08-29T16:32:28.847Z,98436.50
2022-08-29T16:35:30.529Z,98436.30
2022-08-29T16:38:33.880Z,98438.48
2022-08-29T16:41:36.067Z,98436.20
2022-08-29T16:44:38.290Z,98437.77
2022-08-29T16:47:40.259Z,98436.22
2022-08-29T16:50:45.945Z,98433.59
2022-08-29T16:53:47.752Z,98431.46
2022-08-29T16:56:49.496Z,98433.52
2022-08-29T16:59:51.051Z,98431.94
2022-08-29T17:02:52.619Z,98429.89
2022-08-29T17:05:54.216Z,98435.46
2022-08-29T17:08:56.664Z,98438.65
2022-08-29T17:11:59.211Z,98443.13
2022-08-29T17:15:04.078Z,98443.73
2022-08-29T17:18:06.459Z,98450.24
2022-08-29T17:21:08.326Z,98450.73
2022-08-29T17:24:11.394Z,98459.21
2022-08-29T17:27:17.140Z,98458.42
2022-08-29T17:30:22.461Z,98461.38
2022-08-29T17:33:26.313Z,98465.23
2022-08-29T17:36:39.971Z,98462.60
2022-08-29T17:39:45.173Z,98467.07
2022-08-29T17:42:53.109Z,98465.75
2022-08-29T17:45:56.871Z,98467.27
2022-08-29T17:48:58.619Z,98466.44
2022-08-29T17:52:00.263Z,98472.61
2022-08-29T17:55:06.994Z,98477.72
2022-08-29T17:58:09.153Z,98472.48
2022-08-29T18:01:16.214Z,98475.86
2022-08-29T18:04:18.879Z,98474.05
2022-08-29T18:07:23.585Z,98475.40
2022-08-29T18:10:26.721Z,98479.00
2022-08-29T18:13:28.365Z,98483.04
2022-08-29T18:16:30.234Z,98484.22
2022-08-29T18:19:31.803Z,98487.91
2022-08-29T18:22:33.498Z,98492.38
2022-08-29T18:25:35.801Z,98493.45
2022-08-29T18:28:37.362Z,98499.73
2022-08-29T18:31:41.280Z,98503.09
2022-08-29T18:34:43.291Z,98505.90
2022-08-29T18:37:46.386Z,98508.26
2022-08-29T18:40:53.187Z,98514.13
2022-08-29T18:43:55.456Z,98517.80
2022-08-29T18:46:57.085Z,98521.54
2022-08-29T18:50:17.047Z,98524.75
2022-08-29T18:53:21.078Z,98528.32
2022-08-29T18:56:22.755Z,98538.23
2022-08-29T18:59:24.485Z,98540.20
2022-08-29T19:02:26.704Z,98541.71
2022-08-29T19:05:31.470Z,98544.63
2022-08-29T19:08:33.215Z,98546.74
2022-08-29T19:11:34.781Z,98557.59
2022-08-29T19:14:45.818Z,98554.71
2022-08-29T19:17:48.065Z,98553.57
2022-08-29T19:21:02.213Z,98555.13
2022-08-29T19:24:04.001Z,98550.80
2022-08-29T19:27:17.827Z,98553.44
2022-08-29T19:30:28.847Z,98556.34
2022-08-29T19:33:31.424Z,98555.30
2022-08-29T19:36:34.959Z,98558.81
2022-08-29T19:39:36.802Z,98554.71
2022-08-29T19:42:38.732Z,98557.84
2022-08-29T19:45:42.453Z,98558.61
2022-08-29T19:52:04.613Z,98555.29
2022-08-29T19:55:09.869Z,98554.96
2022-08-29T19:58:11.528Z,98557.44
2022-08-29T20:01:16.129Z,98562.92
2022-08-29T20:04:18.240Z,98565.47
2022-08-29T20:07:20.434Z,98562.06
2022-08-29T20:10:24.889Z,98565.80
2022-08-29T20:13:32.845Z,98565.04
2022-08-29T20:16:37.579Z,98567.02
2022-08-29T20:19:40.143Z,98568.90
2022-08-29T20:22:41.823Z,98571.91
2022-08-29T20:25:45.492Z,98570.67
2022-08-29T20:28:48.063Z,98574.39
2022-08-29T20:31:50.237Z,98573.70
2022-08-29T20:34:51.714Z,98576.87
2022-08-29T20:37:53.352Z,98581.27
2022-08-29T20:40:55.220Z,98584.05
2022-08-29T20:44:00.099Z,98586.09
2022-08-29T20:47:02.069Z,98588.88
2022-08-29T20:50:09.891Z,98586.08
2022-08-29T20:53:14.333Z,98589.95
2022-08-29T20:56:32.984Z,98588.91
2022-08-29T20:59:37.768Z,98591.96
2022-08-29T21:03:00.737Z,98593.39
2022-08-29T21:06:04.296Z,98593.83
2022-08-29T21:09:05.941Z,98599.41
2022-08-29T21:12:07.815Z,98597.98
2022-08-29T21:15:13.065Z,98599.42
2022-08-29T21:18:16.552Z,98607.14
2022-08-29T21:21:24.868Z,98606.84
2022-08-29T21:24:28.248Z,98606.91
2022-08-29T21:27:30.088Z,98611.33
2022-08-29T21:30:32.660Z,98608.91
2022-08-29T21:33:39.337Z,98606.33
2022-08-29T21:36:41.292Z,98599.26
2022-08-29T21:39:45.904Z,98601.92
2022-08-29T21:42:47.656Z,98606.08
2022-08-29T21:45:49.215Z,98605.04
2022-08-29T21:48:56.986Z,98606.20
2022-08-29T21:51:58.723Z,98605.45
2022-08-29T21:55:01.220Z,98603.20
2022-08-29T21:58:03.157Z,98599.77
2022-08-29T22:01:05.409Z,98595.70
2022-08-29T22:04:10.166Z,98594.66
2022-08-29T22:07:12.653Z,98596.12
2022-08-29T22:10:19.695Z,98598.16
2022-08-29T22:13:21.356Z,98601.30
2022-08-29T22:16:29.384Z,98595.64
2022-08-29T22:19:31.734Z,98602.53
2022-08-29T22:22:34.282Z,98604.39
2022-08-29T22:25:36.155Z,98606.36
2022-08-29T22:28:37.755Z,98608.87
2022-08-29T22:31:42.283Z,98608.22
2022-08-29T22:34:44.289Z,98609.80
2022-08-29T22:37:45.876Z,98608.47
2022-08-29T22:40:47.435Z,98609.21
2022-08-29T22:43:54.675Z,98608.73
2022-08-29T22:47:10.688Z,98605.83
2022-08-29T22:50:15.860Z,98602.28
2022-08-29T22:53:17.822Z,98601.37
2022-08-29T22:56:19.497Z,98600.62
2022-08-29T22:59:21.331Z,98601.79
2022-08-29T23:02:23.011Z,98597.75
2022-08-29T23:05:24.894Z,98597.75
2022-08-29T23:08:26.440Z,98595.10
2022-08-29T23:11:28.103Z,98595.52
2022-08-29T23:14:29.664Z,98597.10
2022-08-29T23:17:31.212Z,98598.00
2022-08-29T23:20:32.683Z,98598.62
2022-08-29T23:23:34.864Z,98601.45
2022-08-29T23:26:37.124Z,98601.51
2022-08-29T23:29:41.795Z,98597.70
2022-08-29T23:32:43.582Z,98590.50
2022-08-29T23:35:45.152Z,98594.19
2022-08-29T23:38:47.270Z,98591.45
2022-08-29T23:41:51.850Z,98595.17
2022-08-29T23:44:53.353Z,98588.91
2022-08-29T23:47:54.860Z,98584.51
2022-08-29T23:50:56.484Z,98581.77
2022-08-29T23:53:58.124Z,98579.38
2022-08-29T23:56:59.632Z,98578.83
